sensor_id;sensor_type;location;lat;lon;timestamp;pressure;altitude;pressure_sealevel;temperature;humidity
57068;BME280;43391;47.448;18.904;2023-03-26T00:01:16;99199.13;;;6.61;86.81
57068;BME280;43391;47.448;18.904;2023-03-26T00:03:43;99196.63;;;6.59;87.15
57068;BME280;43391;47.448;18.904;2023-03-26T00:06:15;99196.81;;;6.55;87.35
57068;BME280;43391;47.448;18.904;2023-03-26T00:08:42;99193.63;;;6.48;87.59
57068;BME280;43391;47.448;18.904;2023-03-26T00:11:11;99185.03;;;6.47;87.53
57068;BME280;43391;47.448;18.904;2023-03-26T00:13:37;99184.22;;;6.47;87.84
57068;BME280;43391;47.448;18.904;2023-03-26T00:16:03;99193.09;;;6.40;88.16
57068;BME280;43391;47.448;18.904;2023-03-26T00:18:29;99197.47;;;6.37;88.50
57068;BME280;43391;47.448;18.904;2023-03-26T00:21:00;99195.00;;;6.34;88.40
57068;BME280;43391;47.448;18.904;2023-03-26T00:23:26;99191.78;;;6.29;88.91
57068;BME280;43391;47.448;18.904;2023-03-26T00:25:52;99190.00;;;6.31;88.49
57068;BME280;43391;47.448;18.904;2023-03-26T00:28:18;99186.56;;;6.31;88.44
57068;BME280;43391;47.448;18.904;2023-03-26T00:30:48;99196.88;;;6.31;88.64
57068;BME280;43391;47.448;18.904;2023-03-26T00:33:14;99185.75;;;6.30;88.60
57068;BME280;43391;47.448;18.904;2023-03-26T00:35:51;99184.63;;;6.36;88.15
57068;BME280;43391;47.448;18.904;2023-03-26T00:38:18;99189.84;;;6.34;88.63
57068;BME280;43391;47.448;18.904;2023-03-26T00:40:43;99184.78;;;6.33;88.37
57068;BME280;43391;47.448;18.904;2023-03-26T00:43:12;99184.03;;;6.29;88.34
57068;BME280;43391;47.448;18.904;2023-03-26T00:45:52;99176.44;;;6.26;88.48
57068;BME280;43391;47.448;18.904;2023-03-26T00:48:19;99176.44;;;6.26;88.44
57068;BME280;43391;47.448;18.904;2023-03-26T00:50:45;99169.53;;;6.27;88.22
57068;BME280;43391;47.448;18.904;2023-03-26T00:53:12;99175.44;;;6.30;88.36
57068;BME280;43391;47.448;18.904;2023-03-26T00:55:39;99163.31;;;6.32;88.20
57068;BME280;43391;47.448;18.904;2023-03-26T00:58:06;99166.47;;;6.39;88.20
57068;BME280;43391;47.448;18.904;2023-03-26T01:00:36;99168.22;;;6.38;88.25
57068;BME280;43391;47.448;18.904;2023-03-26T01:03:04;99165.69;;;6.37;88.17
57068;BME280;43391;47.448;18.904;2023-03-26T01:08:24;99177.34;;;6.25;88.99
57068;BME280;43391;47.448;18.904;2023-03-26T01:10:52;99170.94;;;6.13;90.02
57068;BME280;43391;47.448;18.904;2023-03-26T01:13:28;99173.66;;;6.08;90.09
57068;BME280;43391;47.448;18.904;2023-03-26T01:15:55;99172.13;;;6.04;90.52
57068;BME280;43391;47.448;18.904;2023-03-26T01:18:22;99185.38;;;5.93;91.08
57068;BME280;43391;47.448;18.904;2023-03-26T01:20:52;99179.56;;;5.88;91.42
57068;BME280;43391;47.448;18.904;2023-03-26T01:23:26;99180.75;;;5.79;91.77
57068;BME280;43391;47.448;18.904;2023-03-26T01:26:03;99179.38;;;5.70;92.48
57068;BME280;43391;47.448;18.904;2023-03-26T01:28:33;99176.06;;;5.67;93.16
57068;BME280;43391;47.448;18.904;2023-03-26T01:31:16;99186.41;;;5.65;92.95
57068;BME280;43391;47.448;18.904;2023-03-26T01:33:53;99188.88;;;5.68;92.95
57068;BME280;43391;47.448;18.904;2023-03-26T01:36:33;99184.50;;;5.70;92.81
57068;BME280;43391;47.448;18.904;2023-03-26T01:41:44;99184.34;;;5.75;92.16
57068;BME280;43391;47.448;18.904;2023-03-26T01:46:39;99181.22;;;5.67;92.16
57068;BME280;43391;47.448;18.904;2023-03-26T01:49:06;99184.56;;;5.69;92.04
57068;BME280;43391;47.448;18.904;2023-03-26T01:51:38;99184.84;;;5.61;92.09
57068;BME280;43391;47.448;18.904;2023-03-26T01:54:06;99182.59;;;5.52;92.49
57068;BME280;43391;47.448;18.904;2023-03-26T02:07:01;99189.31;;;5.56;91.71
57068;BME280;43391;47.448;18.904;2023-03-26T02:09:32;99195.31;;;5.56;91.59
57068;BME280;43391;47.448;18.904;2023-03-26T02:12:01;99194.28;;;5.61;91.11
57068;BME280;43391;47.448;18.904;2023-03-26T02:14:29;99195.09;;;5.63;90.72
57068;BME280;43391;47.448;18.904;2023-03-26T02:16:55;99201.00;;;5.65;90.46
57068;BME280;43391;47.448;18.904;2023-03-26T02:19:21;99199.34;;;5.64;90.44
57068;BME280;43391;47.448;18.904;2023-03-26T02:21:48;99201.91;;;5.64;90.24
57068;BME280;43391;47.448;18.904;2023-03-26T02:24:18;99202.19;;;5.56;90.64
57068;BME280;43391;47.448;18.904;2023-03-26T02:26:44;99205.81;;;5.50;90.54
57068;BME280;43391;47.448;18.904;2023-03-26T02:29:11;99195.75;;;5.44;91.47
57068;BME280;43391;47.448;18.904;2023-03-26T02:31:38;99191.69;;;5.38;92.10
57068;BME280;43391;47.448;18.904;2023-03-26T02:34:03;99195.28;;;5.32;92.43
57068;BME280;43391;47.448;18.904;2023-03-26T02:36:29;99188.47;;;5.31;91.95
57068;BME280;43391;47.448;18.904;2023-03-26T02:38:55;99176.56;;;5.29;91.62
57068;BME280;43391;47.448;18.904;2023-03-26T02:41:22;99179.28;;;5.24;92.51
57068;BME280;43391;47.448;18.904;2023-03-26T02:43:48;99176.88;;;5.19;92.48
57068;BME280;43391;47.448;18.904;2023-03-26T02:46:13;99175.50;;;5.09;93.15
57068;BME280;43391;47.448;18.904;2023-03-26T02:48:38;99168.84;;;5.03;92.96
57068;BME280;43391;47.448;18.904;2023-03-26T02:51:05;99161.75;;;5.10;92.92
57068;BME280;43391;47.448;18.904;2023-03-26T02:53:31;99167.06;;;5.05;92.65
57068;BME280;43391;47.448;18.904;2023-03-26T02:55:57;99163.81;;;5.00;92.84
57068;BME280;43391;47.448;18.904;2023-03-26T02:58:23;99168.28;;;4.95;93.10
57068;BME280;43391;47.448;18.904;2023-03-26T03:00:54;99167.41;;;4.95;92.61
57068;BME280;43391;47.448;18.904;2023-03-26T03:03:21;99167.50;;;4.93;92.95
57068;BME280;43391;47.448;18.904;2023-03-26T03:05:52;99165.66;;;4.97;92.83
57068;BME280;43391;47.448;18.904;2023-03-26T03:08:19;99153.78;;;4.92;93.23
57068;BME280;43391;47.448;18.904;2023-03-26T03:10:55;99156.78;;;4.80;93.86
57068;BME280;43391;47.448;18.904;2023-03-26T03:13:21;99152.75;;;4.71;94.32
57068;BME280;43391;47.448;18.904;2023-03-26T03:15:47;99161.66;;;4.61;94.55
57068;BME280;43391;47.448;18.904;2023-03-26T03:18:12;99159.47;;;4.50;95.01
57068;BME280;43391;47.448;18.904;2023-03-26T03:20:37;99170.09;;;4.39;95.43
57068;BME280;43391;47.448;18.904;2023-03-26T03:23:03;99163.28;;;4.38;96.92
57068;BME280;43391;47.448;18.904;2023-03-26T03:25:28;99170.44;;;4.28;97.27
57068;BME280;43391;47.448;18.904;2023-03-26T03:27:54;99169.78;;;4.21;97.63
57068;BME280;43391;47.448;18.904;2023-03-26T03:30:19;99165.84;;;4.09;98.59
57068;BME280;43391;47.448;18.904;2023-03-26T03:32:45;99166.97;;;4.01;99.00
57068;BME280;43391;47.448;18.904;2023-03-26T03:35:10;99159.28;;;4.01;99.83
57068;BME280;43391;47.448;18.904;2023-03-26T03:37:36;99162.97;;;3.92;100.00
57068;BME280;43391;47.448;18.904;2023-03-26T03:40:01;99167.28;;;3.90;100.00
57068;BME280;43391;47.448;18.904;2023-03-26T03:42:29;99176.13;;;3.81;100.00
57068;BME280;43391;47.448;18.904;2023-03-26T03:44:54;99175.47;;;3.74;100.00
57068;BME280;43391;47.448;18.904;2023-03-26T03:47:20;99172.03;;;3.75;100.00
57068;BME280;43391;47.448;18.904;2023-03-26T03:49:47;99172.31;;;3.64;100.00
57068;BME280;43391;47.448;18.904;2023-03-26T03:52:12;99178.38;;;3.62;100.00
57068;BME280;43391;47.448;18.904;2023-03-26T03:54:37;99176.78;;;3.57;100.00
57068;BME280;43391;47.448;18.904;2023-03-26T03:57:03;99179.44;;;3.54;100.00
57068;BME280;43391;47.448;18.904;2023-03-26T03:59:28;99180.44;;;3.49;100.00
57068;BME280;43391;47.448;18.904;2023-03-26T04:01:53;99184.78;;;3.47;100.00
57068;BME280;43391;47.448;18.904;2023-03-26T04:04:19;99186.63;;;3.43;100.00
57068;BME280;43391;47.448;18.904;2023-03-26T04:06:46;99193.38;;;3.45;100.00
57068;BME280;43391;47.448;18.904;2023-03-26T04:09:11;99188.47;;;3.38;100.00
57068;BME280;43391;47.448;18.904;2023-03-26T04:11:37;99187.78;;;3.31;100.00
57068;BME280;43391;47.448;18.904;2023-03-26T04:14:02;99188.72;;;3.28;100.00
57068;BME280;43391;47.448;18.904;2023-03-26T04:16:28;99195.50;;;3.29;100.00
57068;BME280;43391;47.448;18.904;2023-03-26T04:18:53;99186.31;;;3.22;100.00
57068;BME280;43391;47.448;18.904;2023-03-26T04:21:18;99187.13;;;3.23;100.00
57068;BME280;43391;47.448;18.904;2023-03-26T04:23:44;99178.31;;;3.33;100.00
57068;BME280;43391;47.448;18.904;2023-03-26T04:26:15;99180.91;;;3.31;100.00
57068;BME280;43391;47.448;18.904;2023-03-26T04:28:54;99185.22;;;3.31;100.00
57068;BME280;43391;47.448;18.904;2023-03-26T04:31:23;99188.66;;;3.30;100.00
57068;BME280;43391;47.448;18.904;2023-03-26T04:33:55;99185.50;;;3.20;100.00
57068;BME280;43391;47.448;18.904;2023-03-26T04:36:28;99192.41;;;3.18;100.00
57068;BME280;43391;47.448;18.904;2023-03-26T04:38:56;99197.59;;;3.15;100.00
57068;BME280;43391;47.448;18.904;2023-03-26T04:41:26;99189.81;;;3.19;100.00
57068;BME280;43391;47.448;18.904;2023-03-26T04:43:53;99193.38;;;3.12;100.00
57068;BME280;43391;47.448;18.904;2023-03-26T04:46:20;99191.66;;;3.14;100.00
57068;BME280;43391;47.448;18.904;2023-03-26T04:48:51;99191.53;;;3.17;100.00
57068;BME280;43391;47.448;18.904;2023-03-26T04:51:19;99202.63;;;3.19;100.00
57068;BME280;43391;47.448;18.904;2023-03-26T04:59:05;99194.88;;;3.53;100.00
57068;BME280;43391;47.448;18.904;2023-03-26T05:01:32;99197.28;;;3.59;100.00
57068;BME280;43391;47.448;18.904;2023-03-26T05:04:02;99204.56;;;3.73;100.00
57068;BME280;43391;47.448;18.904;2023-03-26T05:06:28;99197.41;;;3.84;100.00
57068;BME280;43391;47.448;18.904;2023-03-26T05:08:54;99204.06;;;3.92;100.00
57068;BME280;43391;47.448;18.904;2023-03-26T05:11:20;99202.19;;;3.97;100.00
57068;BME280;43391;47.448;18.904;2023-03-26T05:13:45;99207.00;;;4.08;100.00
57068;BME280;43391;47.448;18.904;2023-03-26T05:16:11;99190.25;;;4.24;100.00
57068;BME280;43391;47.448;18.904;2023-03-26T05:18:37;99201.84;;;4.36;100.00
57068;BME280;43391;47.448;18.904;2023-03-26T05:21:02;99199.03;;;4.44;100.00
57068;BME280;43391;47.448;18.904;2023-03-26T05:23:28;99208.84;;;4.60;100.00
57068;BME280;43391;47.448;18.904;2023-03-26T05:25:53;99198.22;;;4.71;100.00
57068;BME280;43391;47.448;18.904;2023-03-26T05:28:18;99207.41;;;4.78;100.00
57068;BME280;43391;47.448;18.904;2023-03-26T05:30:47;99198.63;;;4.85;100.00
57068;BME280;43391;47.448;18.904;2023-03-26T05:33:12;99194.88;;;4.94;100.00
57068;BME280;43391;47.448;18.904;2023-03-26T05:35:38;99192.06;;;5.02;100.00
57068;BME280;43391;47.448;18.904;2023-03-26T05:38:03;99190.03;;;5.10;100.00
57068;BME280;43391;47.448;18.904;2023-03-26T05:40:28;99185.44;;;5.20;100.00
57068;BME280;43391;47.448;18.904;2023-03-26T05:42:54;99192.88;;;5.28;100.00
57068;BME280;43391;47.448;18.904;2023-03-26T05:45:19;99196.03;;;5.36;100.00
57068;BME280;43391;47.448;18.904;2023-03-26T05:47:46;99197.59;;;5.40;100.00
57068;BME280;43391;47.448;18.904;2023-03-26T05:50:14;99191.78;;;5.35;100.00
57068;BME280;43391;47.448;18.904;2023-03-26T05:52:39;99195.13;;;5.37;100.00
57068;BME280;43391;47.448;18.904;2023-03-26T05:55:05;99192.53;;;5.37;99.91
57068;BME280;43391;47.448;18.904;2023-03-26T05:57:32;99189.19;;;5.35;99.88
57068;BME280;43391;47.448;18.904;2023-03-26T06:00:00;99185.63;;;5.39;99.48
57068;BME280;43391;47.448;18.904;2023-03-26T06:02:25;99191.22;;;5.51;98.65
57068;BME280;43391;47.448;18.904;2023-03-26T06:04:50;99184.94;;;5.58;96.35
57068;BME280;43391;47.448;18.904;2023-03-26T06:07:17;99182.75;;;5.71;93.78
57068;BME280;43391;47.448;18.904;2023-03-26T06:09:43;99189.53;;;5.74;93.79
57068;BME280;43391;47.448;18.904;2023-03-26T06:12:10;99183.28;;;5.81;93.47
57068;BME280;43391;47.448;18.904;2023-03-26T06:14:36;99190.44;;;5.96;92.12
57068;BME280;43391;47.448;18.904;2023-03-26T06:17:01;99185.59;;;6.11;91.28
57068;BME280;43391;47.448;18.904;2023-03-26T06:19:26;99178.00;;;6.30;89.95
57068;BME280;43391;47.448;18.904;2023-03-26T06:21:52;99190.84;;;6.53;87.69
57068;BME280;43391;47.448;18.904;2023-03-26T06:24:17;99192.16;;;6.63;87.85
57068;BME280;43391;47.448;18.904;2023-03-26T06:26:44;99193.41;;;6.75;87.29
57068;BME280;43391;47.448;18.904;2023-03-26T06:29:11;99194.75;;;6.84;87.92
57068;BME280;43391;47.448;18.904;2023-03-26T06:31:36;99192.50;;;6.97;87.02
57068;BME280;43391;47.448;18.904;2023-03-26T06:34:02;99194.50;;;7.11;85.83
57068;BME280;43391;47.448;18.904;2023-03-26T06:36:27;99194.75;;;7.25;85.78
57068;BME280;43391;47.448;18.904;2023-03-26T06:38:53;99196.66;;;7.41;85.90
57068;BME280;43391;47.448;18.904;2023-03-26T06:41:18;99199.28;;;7.60;85.17
57068;BME280;43391;47.448;18.904;2023-03-26T06:43:44;99194.97;;;7.80;82.55
57068;BME280;43391;47.448;18.904;2023-03-26T06:46:09;99202.50;;;8.04;81.62
57068;BME280;43391;47.448;18.904;2023-03-26T06:48:35;99203.03;;;8.30;80.44
57068;BME280;43391;47.448;18.904;2023-03-26T06:51:00;99197.63;;;8.54;80.01
57068;BME280;43391;47.448;18.904;2023-03-26T06:53:26;99207.69;;;8.77;80.49
57068;BME280;43391;47.448;18.904;2023-03-26T06:55:52;99206.75;;;8.96;77.34
57068;BME280;43391;47.448;18.904;2023-03-26T06:58:18;99206.66;;;9.15;76.92
57068;BME280;43391;47.448;18.904;2023-03-26T07:00:43;99205.22;;;9.27;75.54
57068;BME280;43391;47.448;18.904;2023-03-26T07:03:09;99212.34;;;9.40;73.72
57068;BME280;43391;47.448;18.904;2023-03-26T07:05:36;99215.13;;;9.53;73.27
57068;BME280;43391;47.448;18.904;2023-03-26T07:08:01;99212.13;;;9.61;71.03
57068;BME280;43391;47.448;18.904;2023-03-26T07:10:27;99214.13;;;9.55;69.81
57068;BME280;43391;47.448;18.904;2023-03-26T07:12:52;99219.91;;;9.61;71.11
57068;BME280;43391;47.448;18.904;2023-03-26T07:15:18;99216.84;;;9.70;70.76
57068;BME280;43391;47.448;18.904;2023-03-26T07:17:43;99216.78;;;9.88;69.81
57068;BME280;43391;47.448;18.904;2023-03-26T07:20:09;99214.94;;;9.90;72.47
57068;BME280;43391;47.448;18.904;2023-03-26T07:22:35;99215.03;;;9.88;69.83
57068;BME280;43391;47.448;18.904;2023-03-26T07:25:01;99213.03;;;9.93;70.23
57068;BME280;43391;47.448;18.904;2023-03-26T07:31:05;99213.28;;;10.21;70.23
57068;BME280;43391;47.448;18.904;2023-03-26T07:33:41;99218.63;;;10.34;68.50
57068;BME280;43391;47.448;18.904;2023-03-26T07:36:22;99216.34;;;10.60;68.51
57068;BME280;43391;47.448;18.904;2023-03-26T07:39:09;99218.25;;;10.72;66.65
57068;BME280;43391;47.448;18.904;2023-03-26T07:41:44;99217.34;;;10.88;66.91
57068;BME280;43391;47.448;18.904;2023-03-26T07:46:55;99223.84;;;10.81;68.20
57068;BME280;43391;47.448;18.904;2023-03-26T07:49:21;99215.84;;;10.84;68.84
57068;BME280;43391;47.448;18.904;2023-03-26T07:51:47;99215.69;;;10.87;68.81
57068;BME280;43391;47.448;18.904;2023-03-26T07:54:13;99215.69;;;10.87;69.19
57068;BME280;43391;47.448;18.904;2023-03-26T07:56:52;99214.94;;;10.85;70.17
57068;BME280;43391;47.448;18.904;2023-03-26T07:59:50;99208.19;;;10.97;70.33
57068;BME280;43391;47.448;18.904;2023-03-26T08:08:30;99208.50;;;11.07;67.54
57068;BME280;43391;47.448;18.904;2023-03-26T08:19:22;99198.59;;;11.42;65.78
57068;BME280;43391;47.448;18.904;2023-03-26T08:21:52;99206.00;;;11.34;64.80
57068;BME280;43391;47.448;18.904;2023-03-26T08:27:06;99206.56;;;11.39;62.40
57068;BME280;43391;47.448;18.904;2023-03-26T08:32:12;99195.63;;;11.63;61.64
57068;BME280;43391;47.448;18.904;2023-03-26T08:34:38;99196.34;;;11.65;61.48
57068;BME280;43391;47.448;18.904;2023-03-26T08:37:04;99192.81;;;11.66;58.92
57068;BME280;43391;47.448;18.904;2023-03-26T08:39:29;99193.28;;;11.73;60.56
57068;BME280;43391;47.448;18.904;2023-03-26T08:50:28;99191.56;;;12.01;57.01
57068;BME280;43391;47.448;18.904;2023-03-26T09:08:05;99176.16;;;12.53;56.67
57068;BME280;43391;47.448;18.904;2023-03-26T09:24:47;99164.75;;;12.82;54.62
57068;BME280;43391;47.448;18.904;2023-03-26T09:27:38;99163.72;;;12.97;55.19
57068;BME280;43391;47.448;18.904;2023-03-26T09:36:20;99156.94;;;13.21;56.58
57068;BME280;43391;47.448;18.904;2023-03-26T09:47:08;99142.06;;;13.10;57.83
57068;BME280;43391;47.448;18.904;2023-03-26T09:55:31;99116.81;;;12.71;59.84
57068;BME280;43391;47.448;18.904;2023-03-26T09:58:24;99108.72;;;12.76;59.88
57068;BME280;43391;47.448;18.904;2023-03-26T10:06:35;99098.81;;;12.68;59.24
57068;BME280;43391;47.448;18.904;2023-03-26T10:09:21;99094.31;;;12.57;60.87
57068;BME280;43391;47.448;18.904;2023-03-26T10:14:51;99122.13;;;12.16;64.98
57068;BME280;43391;47.448;18.904;2023-03-26T10:17:40;99127.22;;;11.90;73.20
57068;BME280;43391;47.448;18.904;2023-03-26T10:23:19;99115.66;;;11.25;83.56
57068;BME280;43391;47.448;18.904;2023-03-26T10:31:42;99087.66;;;11.43;90.87
57068;BME280;43391;47.448;18.904;2023-03-26T10:34:45;99079.63;;;11.75;93.30
57068;BME280;43391;47.448;18.904;2023-03-26T10:37:32;99075.22;;;12.18;92.01
57068;BME280;43391;47.448;18.904;2023-03-26T10:40:18;99071.31;;;12.51;89.39
57068;BME280;43391;47.448;18.904;2023-03-26T10:42:58;99062.13;;;12.71;87.95
57068;BME280;43391;47.448;18.904;2023-03-26T10:51:19;99060.88;;;12.51;75.74
57068;BME280;43391;47.448;18.904;2023-03-26T10:53:53;99045.16;;;12.40;80.64
57068;BME280;43391;47.448;18.904;2023-03-26T10:56:34;99044.09;;;12.29;81.34
57068;BME280;43391;47.448;18.904;2023-03-26T10:59:06;99042.44;;;12.15;82.82
57068;BME280;43391;47.448;18.904;2023-03-26T11:04:35;99027.88;;;11.98;85.66
57068;BME280;43391;47.448;18.904;2023-03-26T11:07:23;99030.03;;;12.06;85.41
57068;BME280;43391;47.448;18.904;2023-03-26T11:10:15;99025.53;;;12.08;88.60
57068;BME280;43391;47.448;18.904;2023-03-26T11:12:53;99012.66;;;12.06;94.02
57068;BME280;43391;47.448;18.904;2023-03-26T11:15:26;99002.03;;;12.09;90.26
57068;BME280;43391;47.448;18.904;2023-03-26T11:18:32;98998.91;;;12.04;92.54
57068;BME280;43391;47.448;18.904;2023-03-26T11:27:04;98994.75;;;12.15;85.26
57068;BME280;43391;47.448;18.904;2023-03-26T11:29:41;98981.34;;;12.47;91.42
57068;BME280;43391;47.448;18.904;2023-03-26T11:32:10;98986.00;;;12.68;89.62
57068;BME280;43391;47.448;18.904;2023-03-26T11:34:40;98979.28;;;12.89;85.80
57068;BME280;43391;47.448;18.904;2023-03-26T11:37:16;98969.09;;;13.24;77.09
57068;BME280;43391;47.448;18.904;2023-03-26T11:39:50;98959.50;;;13.73;74.99
57068;BME280;43391;47.448;18.904;2023-03-26T11:42:21;98949.63;;;14.24;74.21
57068;BME280;43391;47.448;18.904;2023-03-26T11:44:52;98958.69;;;14.66;72.44
57068;BME280;43391;47.448;18.904;2023-03-26T11:47:23;98949.13;;;15.22;70.04
57068;BME280;43391;47.448;18.904;2023-03-26T11:49:54;98936.50;;;15.60;67.51
57068;BME280;43391;47.448;18.904;2023-03-26T11:52:21;98933.16;;;15.36;59.85
57068;BME280;43391;47.448;18.904;2023-03-26T11:54:47;98932.81;;;15.30;57.49
57068;BME280;43391;47.448;18.904;2023-03-26T11:57:30;98913.38;;;15.44;61.52
57068;BME280;43391;47.448;18.904;2023-03-26T12:00:04;98919.75;;;16.05;60.06
57068;BME280;43391;47.448;18.904;2023-03-26T12:02:46;98908.03;;;16.40;58.65
57068;BME280;43391;47.448;18.904;2023-03-26T12:07:53;98911.47;;;16.31;57.74
57068;BME280;43391;47.448;18.904;2023-03-26T12:10:40;98908.13;;;15.98;44.40
57068;BME280;43391;47.448;18.904;2023-03-26T12:13:35;98893.41;;;15.64;43.62
57068;BME280;43391;47.448;18.904;2023-03-26T12:16:15;98891.25;;;15.48;41.95
57068;BME280;43391;47.448;18.904;2023-03-26T12:18:43;98876.84;;;15.32;40.23
57068;BME280;43391;47.448;18.904;2023-03-26T12:21:15;98876.31;;;15.81;42.06
57068;BME280;43391;47.448;18.904;2023-03-26T12:23:53;98878.66;;;16.27;40.01
57068;BME280;43391;47.448;18.904;2023-03-26T12:26:42;98872.28;;;16.60;39.61
57068;BME280;43391;47.448;18.904;2023-03-26T12:29:15;98862.91;;;16.68;36.77
57068;BME280;43391;47.448;18.904;2023-03-26T12:34:31;98858.53;;;16.98;36.81
57068;BME280;43391;47.448;18.904;2023-03-26T12:37:01;98841.69;;;16.71;35.45
57068;BME280;43391;47.448;18.904;2023-03-26T12:39:41;98839.25;;;16.28;37.07
57068;BME280;43391;47.448;18.904;2023-03-26T12:42:29;98839.44;;;15.84;37.13
57068;BME280;43391;47.448;18.904;2023-03-26T12:44:56;98830.47;;;15.56;35.82
57068;BME280;43391;47.448;18.904;2023-03-26T12:47:26;98829.94;;;15.40;36.14
57068;BME280;43391;47.448;18.904;2023-03-26T12:49:53;98831.47;;;15.43;38.25
57068;BME280;43391;47.448;18.904;2023-03-26T12:58:11;98822.09;;;15.40;39.08
57068;BME280;43391;47.448;18.904;2023-03-26T13:06:41;98807.81;;;16.28;37.26
57068;BME280;43391;47.448;18.904;2023-03-26T13:18:09;98788.31;;;17.21;36.72
57068;BME280;43391;47.448;18.904;2023-03-26T13:20:48;98778.34;;;16.85;37.40
57068;BME280;43391;47.448;18.904;2023-03-26T13:31:21;98761.31;;;15.79;36.82
57068;BME280;43391;47.448;18.904;2023-03-26T13:34:00;98760.44;;;15.69;39.00
57068;BME280;43391;47.448;18.904;2023-03-26T13:45:50;98741.34;;;15.47;38.69
57068;BME280;43391;47.448;18.904;2023-03-26T13:48:23;98735.34;;;15.57;38.08
57068;BME280;43391;47.448;18.904;2023-03-26T13:51:20;98738.59;;;16.11;37.10
57068;BME280;43391;47.448;18.904;2023-03-26T13:53:46;98729.81;;;16.42;38.15
57068;BME280;43391;47.448;18.904;2023-03-26T13:56:16;98727.59;;;16.96;37.76
57068;BME280;43391;47.448;18.904;2023-03-26T13:58:53;98714.28;;;17.75;36.71
57068;BME280;43391;47.448;18.904;2023-03-26T14:01:27;98709.97;;;18.30;34.97
57068;BME280;43391;47.448;18.904;2023-03-26T14:04:05;98708.69;;;18.53;33.62
57068;BME280;43391;47.448;18.904;2023-03-26T14:06:47;98708.19;;;19.12;32.78
57068;BME280;43391;47.448;18.904;2023-03-26T14:09:25;98703.22;;;19.35;31.87
57068;BME280;43391;47.448;18.904;2023-03-26T14:14:36;98709.34;;;19.79;29.29
57068;BME280;43391;47.448;18.904;2023-03-26T14:27:08;98684.25;;;21.34;27.21
57068;BME280;43391;47.448;18.904;2023-03-26T14:40:29;98680.41;;;22.40;24.24
57068;BME280;43391;47.448;18.904;2023-03-26T14:54:37;98653.25;;;22.00;23.39
57068;BME280;43391;47.448;18.904;2023-03-26T15:00:03;98635.56;;;22.47;23.75
57068;BME280;43391;47.448;18.904;2023-03-26T15:27:33;98601.81;;;20.26;26.64
57068;BME280;43391;47.448;18.904;2023-03-26T15:30:41;98593.50;;;19.87;26.52
57068;BME280;43391;47.448;18.904;2023-03-26T15:42:16;98580.25;;;17.40;30.62
57068;BME280;43391;47.448;18.904;2023-03-26T15:59:01;98564.13;;;16.97;32.79
57068;BME280;43391;47.448;18.904;2023-03-26T16:12:33;98522.94;;;15.63;35.83
57068;BME280;43391;47.448;18.904;2023-03-26T16:23:02;98504.31;;;14.76;37.80
57068;BME280;43391;47.448;18.904;2023-03-26T16:25:51;98496.97;;;14.69;38.37
57068;BME280;43391;47.448;18.904;2023-03-26T16:28:26;98493.47;;;14.59;38.69
57068;BME280;43391;47.448;18.904;2023-03-26T16:33:56;98496.78;;;14.30;39.28
57068;BME280;43391;47.448;18.904;2023-03-26T16:36:30;98499.25;;;14.10;39.68
57068;BME280;43391;47.448;18.904;2023-03-26T16:49:52;98498.53;;;13.65;42.01
57068;BME280;43391;47.448;18.904;2023-03-26T16:54:49;98497.47;;;13.45;43.68
57068;BME280;43391;47.448;18.904;2023-03-26T16:57:23;98498.47;;;13.33;43.69
57068;BME280;43391;47.448;18.904;2023-03-26T17:02:31;98494.25;;;13.20;44.04
57068;BME280;43391;47.448;18.904;2023-03-26T17:13:54;98495.09;;;12.98;45.21
57068;BME280;43391;47.448;18.904;2023-03-26T17:16:49;98492.97;;;12.92;45.71
57068;BME280;43391;47.448;18.904;2023-03-26T17:22:51;98497.25;;;12.81;46.09
57068;BME280;43391;47.448;18.904;2023-03-26T17:25:30;98486.00;;;12.69;46.92
57068;BME280;43391;47.448;18.904;2023-03-26T17:35:48;98484.47;;;12.55;48.16
57068;BME280;43391;47.448;18.904;2023-03-26T17:40:57;98487.66;;;12.59;49.30
57068;BME280;43391;47.448;18.904;2023-03-26T17:43:34;98480.91;;;12.56;49.34
57068;BME280;43391;47.448;18.904;2023-03-26T17:46:18;98488.72;;;12.56;49.33
57068;BME280;43391;47.448;18.904;2023-03-26T17:48:46;98495.34;;;12.49;49.71
57068;BME280;43391;47.448;18.904;2023-03-26T17:53:59;98490.84;;;12.40;51.48
57068;BME280;43391;47.448;18.904;2023-03-26T17:56:28;98484.09;;;12.37;51.43
57068;BME280;43391;47.448;18.904;2023-03-26T17:58:56;98479.94;;;12.34;52.18
57068;BME280;43391;47.448;18.904;2023-03-26T18:04:02;98492.69;;;12.26;52.25
57068;BME280;43391;47.448;18.904;2023-03-26T18:09:16;98487.25;;;12.29;52.68
57068;BME280;43391;47.448;18.904;2023-03-26T18:17:22;98481.31;;;12.16;52.17
57068;BME280;43391;47.448;18.904;2023-03-26T18:19:51;98481.69;;;12.11;53.40
57068;BME280;43391;47.448;18.904;2023-03-26T18:22:24;98482.22;;;12.03;53.75
57068;BME280;43391;47.448;18.904;2023-03-26T18:24:55;98480.06;;;11.97;54.94
57068;BME280;43391;47.448;18.904;2023-03-26T18:27:27;98475.94;;;11.94;53.83
57068;BME280;43391;47.448;18.904;2023-03-26T18:30:12;98473.44;;;11.93;55.83
57068;BME280;43391;47.448;18.904;2023-03-26T18:32:48;98470.47;;;11.86;57.09
57068;BME280;43391;47.448;18.904;2023-03-26T18:35:19;98458.50;;;11.83;56.50
57068;BME280;43391;47.448;18.904;2023-03-26T18:37:48;98467.47;;;11.79;55.73
57068;BME280;43391;47.448;18.904;2023-03-26T18:40:16;98460.03;;;11.75;56.59
57068;BME280;43391;47.448;18.904;2023-03-26T18:42:52;98460.69;;;11.65;56.20
57068;BME280;43391;47.448;18.904;2023-03-26T18:47:52;98447.63;;;11.78;54.50
57068;BME280;43391;47.448;18.904;2023-03-26T18:50:24;98441.97;;;11.85;53.59
57068;BME280;43391;47.448;18.904;2023-03-26T18:52:51;98443.06;;;11.93;52.61
57068;BME280;43391;47.448;18.904;2023-03-26T18:55:16;98437.50;;;11.98;52.21
57068;BME280;43391;47.448;18.904;2023-03-26T18:57:43;98432.91;;;12.02;52.31